Time,TemperatureF,DewpointF,PressureIn,WindDirection,WindDirectionDegrees,WindSpeedMPH,WindSpeedGustMPH,Humidity,HourlyPrecipIn,Conditions,Clouds,dailyrainin,SoftwareType,DateUTC
2013-09-08 00:23:00,63.0,57.0,30.02,North,0,0.0,-999.0,82,-99.99,,,-99.99,,2013-09-08 07:23:00,
2013-09-08 00:32:00,63.0,57.0,30.02,North,0,0.0,-999.0,82,-99.99,,,-99.99,,2013-09-08 07:32:00,
2013-09-08 00:52:00,61.0,57.0,30.03,North,0,0.0,-999.0,87,-99.99,,,-99.99,,2013-09-08 07:52:00,
2013-09-08 01:22:00,59.0,57.0,30.04,North,0,0.0,-999.0,93,-99.99,,,-99.99,,2013-09-08 08:22:00,
2013-09-08 01:32:00,59.0,57.0,30.04,North,0,0.0,-999.0,93,-99.99,,,-99.99,,2013-09-08 08:32:00,
2013-09-08 01:52:00,59.0,55.0,30.05,North,0,0.0,-999.0,87,-99.99,,,-99.99,,2013-09-08 08:52:00,
2013-09-08 02:22:00,57.0,55.0,30.05,North,0,0.0,-999.0,93,-99.99,,,-99.99,,2013-09-08 09:22:00,
2013-09-08 02:33:00,57.0,55.0,30.05,North,0,0.0,-999.0,93,-99.99,,,-99.99,,2013-09-08 09:33:00,
2013-09-08 02:53:00,57.0,55.0,30.05,North,0,0.0,-999.0,93,-99.99,,,-99.99,,2013-09-08 09:53:00,
2013-09-08 03:23:00,59.0,55.0,30.06,South,190,7.0,-999.0,87,-99.99,,,-99.99,,2013-09-08 10:23:00,
2013-09-08 03:33:00,59.0,55.0,30.06,South,190,7.0,-999.0,87,-99.99,,,-99.99,,2013-09-08 10:33:00,
2013-09-08 03:53:00,59.0,55.0,30.06,South,190,7.0,-999.0,87,-99.99,,,-99.99,,2013-09-08 10:53:00,
2013-09-08 04:21:00,57.0,55.0,30.06,South,170,3.0,-999.0,93,-99.99,,,-99.99,,2013-09-08 11:21:00,
2013-09-08 04:33:00,57.0,55.0,30.06,South,170,3.0,-999.0,93,-99.99,,,-99.99,,2013-09-08 11:33:00,
2013-09-08 04:52:00,57.0,54.0,30.06,SSW,200,6.0,-999.0,87,-99.99,,,-99.99,,2013-09-08 11:52:00,
2013-09-08 05:22:00,57.0,54.0,30.06,SSW,210,5.0,-999.0,87,-99.99,,,-99.99,,2013-09-08 12:22:00,
2013-09-08 05:32:00,57.0,54.0,30.06,SSW,210,5.0,-999.0,87,-99.99,,,-99.99,,2013-09-08 12:32:00,
2013-09-08 05:52:00,57.0,54.0,30.06,SSW,200,6.0,-999.0,87,-99.99,,,-99.99,,2013-09-08 12:52:00,
2013-09-08 06:22:00,55.0,54.0,30.07,South,190,6.0,-999.0,93,-99.99,,,-99.99,,2013-09-08 13:22:00,
2013-09-08 06:32:00,55.0,54.0,30.07,South,190,6.0,-999.0,93,-99.99,,,-99.99,,2013-09-08 13:32:00,
2013-09-08 06:52:00,57.0,54.0,30.07,South,180,3.0,-999.0,87,-99.99,,,-99.99,,2013-09-08 13:52:00,
2013-09-08 07:22:00,57.0,54.0,30.08,SSW,200,5.0,-999.0,87,-99.99,,,-99.99,,2013-09-08 14:22:00,
2013-09-08 07:31:00,57.0,54.0,30.08,SSW,200,5.0,-999.0,87,-99.99,,,-99.99,,2013-09-08 14:31:00,
2013-09-08 07:52:00,57.0,54.0,30.09,SSW,200,6.0,-999.0,87,-99.99,,,-99.99,,2013-09-08 14:52:00,
2013-09-08 08:23:00,59.0,54.0,30.09,SSW,210,6.0,-999.0,82,-99.99,,,-99.99,,2013-09-08 15:23:00,
2013-09-08 08:34:00,59.0,54.0,30.09,SSW,210,6.0,-999.0,82,-99.99,,,-99.99,,2013-09-08 15:34:00,
2013-09-08 08:54:00,61.0,54.0,30.09,SW,220,3.0,-999.0,77,-99.99,,,-99.99,,2013-09-08 15:54:00,
2013-09-08 09:53:00,63.0,55.0,30.09,North,0,0.0,-999.0,77,-99.99,,,-99.99,,2013-09-08 16:53:00,
2013-09-08 10:23:00,66.0,57.0,30.09,NW,310,3.0,-999.0,72,-99.99,,,-99.99,,2013-09-08 17:23:00,
2013-09-08 10:34:00,66.0,57.0,30.09,NW,310,3.0,-999.0,72,-99.99,,,-99.99,,2013-09-08 17:34:00,
2013-09-08 10:53:00,68.0,55.0,30.09,North,0,0.0,-999.0,64,-99.99,,,-99.99,,2013-09-08 17:53:00,
2013-09-08 11:22:00,70.0,57.0,30.09,North,0,0.0,-999.0,64,-99.99,,,-99.99,,2013-09-08 18:22:00,
2013-09-08 11:32:00,70.0,57.0,30.09,North,0,0.0,-999.0,64,-99.99,,,-99.99,,2013-09-08 18:32:00,
2013-09-08 11:52:00,70.0,57.0,30.09,North,0,0.0,-999.0,64,-99.99,,,-99.99,,2013-09-08 18:52:00,
2013-09-08 12:22:00,73.0,59.0,30.08,North,0,0.0,-999.0,60,-99.99,,,-99.99,,2013-09-08 19:22:00,
2013-09-08 12:32:00,73.0,59.0,30.08,North,0,0.0,-999.0,60,-99.99,,,-99.99,,2013-09-08 19:32:00,
2013-09-08 12:52:00,75.0,57.0,30.08,East,80,3.0,-999.0,53,-99.99,,,-99.99,,2013-09-08 19:52:00,
2013-09-08 13:22:00,77.0,57.0,30.06,North,0,0.0,-999.0,50,-99.99,,,-99.99,,2013-09-08 20:22:00,
2013-09-08 13:32:00,77.0,57.0,30.06,North,0,0.0,-999.0,50,-99.99,,,-99.99,,2013-09-08 20:32:00,
2013-09-08 13:53:00,77.0,55.0,30.06,North,0,0.0,-999.0,47,-99.99,,,-99.99,,2013-09-08 20:53:00,
2013-09-08 14:22:00,81.0,55.0,30.04,NNW,330,3.0,-999.0,42,-99.99,,,-99.99,,2013-09-08 21:22:00,
2013-09-08 14:34:00,81.0,55.0,30.04,NNW,330,3.0,-999.0,42,-99.99,,,-99.99,,2013-09-08 21:34:00,
2013-09-08 14:54:00,81.0,54.0,30.04,North,0,0.0,-999.0,39,-99.99,,,-99.99,,2013-09-08 21:54:00,
2013-09-08 15:24:00,82.0,52.0,30.02,North,0,0.0,-999.0,34,-99.99,,,-99.99,,2013-09-08 22:24:00,
2013-09-08 15:33:00,82.0,52.0,30.02,North,0,0.0,-999.0,34,-99.99,,,-99.99,,2013-09-08 22:33:00,
2013-09-08 15:53:00,82.0,50.0,30.02,North,0,0.0,-999.0,32,-99.99,,,-99.99,,2013-09-08 22:53:00,
2013-09-08 16:22:00,84.0,48.0,30.00,North,0,0.0,-999.0,28,-99.99,,,-99.99,,2013-09-08 23:22:00,
2013-09-08 16:34:00,84.0,48.0,30.00,North,0,0.0,-999.0,28,-99.99,,,-99.99,,2013-09-08 23:34:00,
2013-09-08 16:52:00,84.0,52.0,29.99,South,190,3.0,-999.0,32,-99.99,,,-99.99,,2013-09-08 23:52:00,
2013-09-08 17:22:00,84.0,52.0,29.98,North,0,0.0,-999.0,32,-99.99,,,-99.99,,2013-09-09 00:22:00,
2013-09-08 17:32:00,84.0,52.0,29.98,North,0,0.0,-999.0,32,-99.99,,,-99.99,,2013-09-09 00:32:00,
2013-09-08 17:52:00,86.0,48.0,29.97,North,0,0.0,-999.0,27,-99.99,,,-99.99,,2013-09-09 00:52:00,
2013-09-08 18:21:00,82.0,54.0,29.97,West,270,3.0,-999.0,37,-99.99,,,-99.99,,2013-09-09 01:21:00,
2013-09-08 18:32:00,82.0,54.0,29.97,West,270,3.0,-999.0,37,-99.99,,,-99.99,,2013-09-09 01:32:00,
2013-09-08 18:52:00,82.0,55.0,29.96,WNW,290,7.0,-999.0,39,-99.99,,,-99.99,,2013-09-09 01:52:00,
2013-09-08 19:22:00,81.0,57.0,29.95,North,0,0.0,-999.0,44,-99.99,,,-99.99,,2013-09-09 02:22:00,
2013-09-08 19:32:00,81.0,57.0,29.95,North,0,0.0,-999.0,44,-99.99,,,-99.99,,2013-09-09 02:32:00,
2013-09-08 19:52:00,81.0,57.0,29.95,WSW,250,5.0,-999.0,44,-99.99,,,-99.99,,2013-09-09 02:52:00,
2013-09-08 20:22:00,77.0,59.0,29.96,SSW,210,3.0,-999.0,53,-99.99,,,-99.99,,2013-09-09 03:22:00,
2013-09-08 20:34:00,77.0,59.0,29.96,SSW,210,3.0,-999.0,53,-99.99,,,-99.99,,2013-09-09 03:34:00,
2013-09-08 20:55:00,77.0,59.0,29.96,WNW,300,6.0,-999.0,53,-99.99,,,-99.99,,2013-09-09 03:55:00,
2013-09-08 21:24:00,72.0,61.0,29.97,North,0,0.0,-999.0,68,-99.99,,,-99.99,,2013-09-09 04:24:00,
2013-09-08 21:33:00,72.0,61.0,29.97,North,0,0.0,-999.0,68,-99.99,,,-99.99,,2013-09-09 04:33:00,
2013-09-08 21:54:00,70.0,61.0,29.98,North,0,0.0,-999.0,73,-99.99,,,-99.99,,2013-09-09 04:54:00,
2013-09-08 22:23:00,68.0,59.0,29.99,North,0,0.0,-999.0,72,-99.99,,,-99.99,,2013-09-09 05:23:00,
2013-09-08 22:34:00,68.0,59.0,29.99,North,0,0.0,-999.0,72,-99.99,,,-99.99,,2013-09-09 05:34:00,
2013-09-08 22:53:00,70.0,59.0,29.99,North,0,0.0,-999.0,68,-99.99,,,-99.99,,2013-09-09 05:53:00,
2013-09-08 23:21:00,68.0,59.0,29.99,North,0,0.0,-999.0,72,-99.99,,,-99.99,,2013-09-09 06:21:00,
2013-09-08 23:32:00,68.0,59.0,29.99,North,0,0.0,-999.0,72,-99.99,,,-99.99,,2013-09-09 06:32:00,
2013-09-08 23:52:00,68.0,59.0,29.99,North,0,0.0,-999.0,72,-99.99,,,-99.99,,2013-09-09 06:52:00,